Pagrindinis puslapis
METAR-TAF:

METAR-TAF

Oro uostai :

Anceranana, Madagaskaras

platuma: 12-21S, ilguma: 049-18E, Aukštis: 114 m

Dabartinis oras

Ataskaita buvo paskelbta 56 minutes, ne 12:00 UTC
Vėjas 8 kt iš Rytų
Temperatūra 30°C
Drėgmė 66%
Slėgis 1008 hPa
Matomumas 10 km arba daugiau
Išsisklaidę debesys ne aukštis 2000 ft, Liūtiniai kamuoliniai debesys.

METAR: FMNA 151200Z 08008KT 9999 SCT020CB 30/23 Q1008

Laikas: 15:56 (12:56 UTC)

Prognozė

Ataskaita buvo paskelbta 1 valandą ir 56 minutes, ne 11:00 UTC
Prognozė galioja nuo 15 metu 12 UTC su 16 metu 12 UTC
Vėjas 10 kt iš Rytų
Matomumas 10 km arba daugiau
Mažai debesys ne aukštis 2000 ft, Liūtiniai kamuoliniai debesys.
Išsisklaidę debesys ne aukštis 4000 ft

TAF: FMNA 151100Z 1512/1612 10010KT 9999 FEW020CB SCT040

Orai ataskaitas ir orų prognozės (METAR, TAF).

turimą stotys yra geltonos ir raudonos taškus žemėlapyje.

Perkelti pele per norėdami pamatyti stoties vardą.

Tada spustelėkite, norėdami matyti oro stebėjimo ir prognozės.

Norėdami pakeisti žemėlapį: spustelėkite ant žalios mygtukų su juodo kryžiaus žemyn,; žalią mygtuką su brūkšneliu, jei norite nutolinti; arba žalių rodyklių gretimoms žemėlapius.


METAR-TAF: